Portada
METAR-TAF:

METAR-TAF

Aeroports :

Kingston, Jamaica

latitud: 17-56N, longitud: 076-47W, altitud: 3 m

Observació

L'informe es va fer fa 11 minuts, a les 17:00 UTC
Vent 8 kt del Sud
Temperatura 31°C
Humitat 66%
Pressió 1013 hPa
Visibilitat 10 km o més
Escasses núvols a una alçada de 2000 ft

METAR: MKJP 231700Z 18008KT 9999 FEW020 31/24 Q1013

Hora: 12:11 (17:11 UTC)

Pronòstic

L'informe es va fer fa 5 hores i 56 minuts, a les 11:15 UTC
Pronòstic vàlid del 23 a les 12 UTC al 24 a les 12 UTC
Vent 5 kt del Nord
Visibilitat 10 km o més
Escasses núvols a una alçada de 2200 ft
Evolucionant progressivament
l' 23 a les 14 UTC al 23 a les 16 UTC
Vent 8 kt del Sud
Evolucionant progressivament
l' 24 a les 01 UTC al 24 a les 03 UTC
Vent 5 kt del Nord

TAF: MKJP 231115Z 2312/2412 36005KT 9999 FEW022 BECMG 2314/2316 17008KT BECMG 2401/2403 35005KT

Observacions i pronòstics meteorològics de més de 4000 aeroports (METAR i TAF).

Les estacions disponibles són els punts grocs i vermells al mapa.

Posi el ratolí al punt desitjat per veure el nom de l'estació.

Feu clic per veure les observacions i els pronòstics meteorològics.

Per canviar el mapa: feu clic els botons verds amb una creu de color negre per apropar; al botó verd amb un guió per allunyar la imatge; o en les fletxes verdes per a mapes adjacents.


METAR-TAF: